< < Back
Terminal Aerodrome Forecast


Current Version              Previous Versions:   1  2  3  4  5  6  7  8  9  

Terminal Aerodrome Forecast

819
FTUS42 KILM 302329
TAFILM
TAF
KILM 302329Z 3100/3124 14005KT P6SM FEW020 SCT050 SCT110
     FM310200 VRB03KT 5SM -RA BR SCT025 BKN050 OVC080
     FM311300 10004KT P6SM -SHRA SCT025 OVC050
     FM311800 14010G16KT P6SM -RA SCT025 BKN050 OVC100=

Latest METAR

810
SAUS70 KWBC 311300 RRF
MTRILM
METAR KILM 311253Z 13007KT 10SM FEW008 FEW033 SCT060 26/23 A3008 RMK AO2
LTG DSNT S AND W RAB01E34 SLP184 P0004 T02560233


USA.gov is the U.S. government's official web portal to all federal, state and local government web resources and services.